Time;durP1;ratioP1;P1;durP2;ratioP2;P2;SDS_P1;SDS_P2;PMS_P1;PMS_P2;Temp;Humidity;BMP_temperature;BMP_pressure;BME280_temperature;BME280_humidity;BME280_pressure;Samples;Min_cycle;Max_cycle;Signal;HPM_P1;HPM_P2
2022/07/04 00:00:01;;;;;;;3.83;0.80;;;19.60;91.10;;;;;;5022076;28;20034;-83
2022/07/04 00:02:27;;;;;;;1.13;0.73;;;19.60;91.10;;;;;;5017518;28;20032;-80
2022/07/04 00:04:53;;;;;;;2.13;0.68;;;19.60;91.10;;;;;;5025093;28;20041;-82
2022/07/04 00:07:19;;;;;;;2.55;0.85;;;19.50;91.40;;;;;;5026494;28;20045;-83
2022/07/04 00:09:45;;;;;;;3.40;0.75;;;19.50;91.00;;;;;;5032012;28;20117;-81
2022/07/04 00:12:12;;;;;;;3.95;0.70;;;19.50;90.90;;;;;;5017192;28;20030;-81
2022/07/04 00:14:38;;;;;;;2.28;0.70;;;19.40;91.10;;;;;;5034415;28;20025;-79
2022/07/04 00:17:04;;;;;;;2.55;0.65;;;19.40;91.10;;;;;;5038467;28;20033;-81
2022/07/04 00:19:31;;;;;;;2.55;1.60;;;19.40;91.20;;;;;;5032941;28;20052;-80
2022/07/04 00:21:57;;;;;;;3.85;1.08;;;19.40;91.40;;;;;;5034054;28;20048;-83
2022/07/04 00:24:23;;;;;;;5.07;0.90;;;19.40;91.60;;;;;;5034280;28;20049;-81
2022/07/04 00:26:49;;;;;;;2.35;0.80;;;19.40;91.00;;;;;;5033559;28;20037;-82
2022/07/04 00:29:15;;;;;;;3.22;1.00;;;19.40;91.20;;;;;;5034010;28;20049;-81
2022/07/04 00:31:42;;;;;;;1.95;0.68;;;19.40;91.40;;;;;;5033440;28;20033;-82
2022/07/04 00:34:08;;;;;;;5.97;1.08;;;19.40;91.50;;;;;;5034777;28;20041;-81
2022/07/04 00:36:34;;;;;;;3.65;1.02;;;19.30;91.50;;;;;;5033300;28;20042;-81
2022/07/04 00:39:00;;;;;;;2.45;0.73;;;19.30;91.70;;;;;;5033705;28;20033;-82
2022/07/04 00:41:26;;;;;;;1.70;0.70;;;19.30;92.00;;;;;;5033628;28;20044;-82
2022/07/04 00:44:05;;;;;;;2.35;0.80;;;19.30;91.60;;;;;;5033766;28;20033;-83
2022/07/04 00:46:32;;;;;;;2.03;0.70;;;19.30;91.60;;;;;;5033652;28;20467;-82
2022/07/04 00:48:58;;;;;;;5.85;1.00;;;19.20;91.80;;;;;;5032822;28;20060;-82
2022/07/04 00:51:25;;;;;;;0.85;0.50;;;19.20;92.00;;;;;;5033859;28;20033;-82
2022/07/04 00:53:53;;;;;;;2.15;0.60;;;19.20;92.20;;;;;;5033224;28;20033;-82
2022/07/04 00:56:21;;;;;;;3.13;0.60;;;19.10;92.30;;;;;;5032937;28;20041;-83
2022/07/04 00:58:47;;;;;;;6.18;1.35;;;19.10;92.20;;;;;;5032192;28;20215;-83
2022/07/04 01:01:14;;;;;;;3.42;0.70;;;19.10;92.30;;;;;;5033205;28;20490;-82
2022/07/04 01:03:40;;;;;;;3.55;0.73;;;19.10;92.50;;;;;;5032609;28;20049;-82
2022/07/04 01:06:10;;;;;;;2.13;0.55;;;19.10;92.40;;;;;;5032188;28;20052;-82
2022/07/04 01:08:41;;;;;;;0.93;0.43;;;19.10;92.20;;;;;;5032841;28;20091;-83
2022/07/04 01:11:08;;;;;;;4.13;1.13;;;19.00;92.20;;;;;;5033476;28;20040;-82
2022/07/04 01:13:35;;;;;;;2.97;0.73;;;19.00;92.30;;;;;;5031723;28;20040;-82
2022/07/04 01:16:03;;;;;;;3.45;0.75;;;19.00;92.10;;;;;;5033184;28;20050;-83
2022/07/04 01:18:29;;;;;;;2.00;0.80;;;19.00;92.30;;;;;;5032729;28;20037;-82
2022/07/04 01:20:56;;;;;;;2.28;0.80;;;19.10;92.00;;;;;;5034181;28;20390;-81
2022/07/04 01:23:22;;;;;;;7.82;0.77;;;19.10;92.00;;;;;;5032778;28;20104;-82
2022/07/04 01:25:50;;;;;;;2.85;0.70;;;19.00;92.20;;;;;;5033546;28;20037;-82
2022/07/04 01:28:18;;;;;;;2.47;0.50;;;19.00;92.40;;;;;;5031663;28;20371;-82
2022/07/04 01:30:45;;;;;;;1.48;0.60;;;19.00;92.50;;;;;;5032239;28;20033;-81
2022/07/04 01:33:11;;;;;;;2.67;0.80;;;19.00;93.00;;;;;;5031453;28;20048;-81
2022/07/04 01:35:37;;;;;;;2.70;1.00;;;19.00;92.90;;;;;;5033274;28;20041;-81
2022/07/04 01:38:04;;;;;;;8.00;1.23;;;18.90;92.80;;;;;;5031914;28;20041;-81
2022/07/04 01:40:30;;;;;;;2.30;1.10;;;18.80;93.10;;;;;;5031021;28;20038;-80
2022/07/04 01:42:58;;;;;;;2.40;0.73;;;18.70;93.40;;;;;;5032214;28;20060;-80
2022/07/04 01:45:24;;;;;;;1.58;0.60;;;18.70;93.50;;;;;;5032572;28;20387;-81
2022/07/04 01:47:51;;;;;;;2.08;0.60;;;18.70;93.80;;;;;;5032591;28;20038;-81
2022/07/04 01:50:17;;;;;;;2.85;0.57;;;18.50;93.90;;;;;;5032027;28;20033;-80
2022/07/04 01:52:43;;;;;;;4.05;0.98;;;18.50;94.20;;;;;;5032764;28;20439;-80
2022/07/04 01:55:11;;;;;;;1.30;0.40;;;18.30;94.20;;;;;;5031997;28;20498;-80
2022/07/04 01:57:38;;;;;;;3.65;0.60;;;18.20;94.40;;;;;;5032838;28;20053;-80
2022/07/04 02:02:55;;;;;;;3.15;0.63;;;18.10;94.80;;;;;;5019641;28;20044;-81
2022/07/04 02:05:22;;;;;;;3.53;0.80;;;18.00;95.20;;;;;;5031949;28;20029;-80
2022/07/04 02:07:48;;;;;;;1.73;0.90;;;17.90;95.40;;;;;;5031983;28;20036;-80
2022/07/04 02:10:15;;;;;;;3.17;0.77;;;17.80;95.50;;;;;;5032238;28;20036;-80
2022/07/04 02:15:26;;;;;;;2.08;0.80;;;17.60;96.40;;;;;;5013132;28;20041;-80
2022/07/04 02:17:52;;;;;;;0.95;0.55;;;17.50;96.60;;;;;;5035212;28;20044;-81
2022/07/04 02:20:18;;;;;;;3.25;0.68;;;17.50;97.20;;;;;;5033205;28;20056;-80
2022/07/04 02:22:44;;;;;;;3.22;0.77;;;17.50;97.20;;;;;;5031385;28;20410;-80
2022/07/04 02:25:11;;;;;;;4.03;0.55;;;17.50;97.40;;;;;;5031473;28;20036;-80
2022/07/04 02:27:38;;;;;;;2.53;0.70;;;17.40;97.00;;;;;;5032562;28;20061;-80
2022/07/04 02:30:05;;;;;;;3.47;0.90;;;17.40;97.20;;;;;;5032039;28;20030;-80
2022/07/04 02:32:31;;;;;;;4.82;1.00;;;17.30;97.10;;;;;;5032192;28;20025;-79
2022/07/04 02:34:57;;;;;;;1.25;0.60;;;17.30;97.00;;;;;;5030981;28;20037;-81
2022/07/04 02:37:24;;;;;;;2.17;0.70;;;17.30;97.00;;;;;;5032550;28;20034;-82
2022/07/04 02:39:50;;;;;;;2.90;0.80;;;17.20;97.10;;;;;;5031350;28;20253;-81
2022/07/04 02:42:16;;;;;;;1.25;0.63;;;17.10;97.20;;;;;;5030938;28;20041;-81
2022/07/04 02:44:43;;;;;;;3.13;0.70;;;17.10;97.50;;;;;;5031616;28;20041;-80
2022/07/04 02:47:10;;;;;;;4.47;1.08;;;17.00;97.30;;;;;;5044524;28;20006;-79
2022/07/04 02:49:36;;;;;;;2.53;0.70;;;17.00;97.50;;;;;;5047977;28;20026;-79
2022/07/04 02:52:02;;;;;;;1.63;0.77;;;17.00;97.70;;;;;;5044566;28;20035;-80
2022/07/04 02:54:28;;;;;;;1.98;0.88;;;17.00;98.00;;;;;;5040810;28;20463;-79
2022/07/04 02:56:54;;;;;;;3.67;0.85;;;16.90;98.00;;;;;;5034615;28;20049;-79
2022/07/04 02:59:21;;;;;;;3.03;0.88;;;16.90;98.20;;;;;;5031470;28;20040;-80
2022/07/04 03:01:47;;;;;;;1.63;0.60;;;16.80;98.20;;;;;;5030938;28;20041;-79
2022/07/04 03:04:13;;;;;;;1.10;0.50;;;16.80;98.50;;;;;;5031317;28;20387;-80
2022/07/04 03:06:39;;;;;;;2.72;0.70;;;16.70;98.80;;;;;;5030355;28;20037;-81
2022/07/04 03:09:06;;;;;;;5.13;1.65;;;16.70;99.10;;;;;;5031160;28;20037;-80
2022/07/04 03:11:32;;;;;;;4.03;0.98;;;16.70;99.20;;;;;;5031397;28;20034;-81
2022/07/04 03:13:58;;;;;;;2.55;0.70;;;16.70;98.90;;;;;;5031592;28;20033;-81
2022/07/04 03:16:25;;;;;;;1.48;1.08;;;16.60;99.10;;;;;;5030886;28;20056;-81
2022/07/04 03:18:51;;;;;;;5.78;2.15;;;16.60;99.10;;;;;;5030354;28;20300;-81
2022/07/04 03:21:17;;;;;;;2.00;1.10;;;16.50;99.50;;;;;;5026602;28;20038;-81
2022/07/04 03:23:57;;;;;;;3.72;0.70;;;16.50;99.80;;;;;;5026502;28;20060;-81
2022/07/04 03:26:30;;;;;;;3.17;0.98;;;16.50;99.90;;;;;;5031597;28;20038;-81
2022/07/04 03:28:57;;;;;;;2.50;0.75;;;16.40;99.90;;;;;;5029678;28;20042;-81
2022/07/04 03:31:24;;;;;;;2.03;0.90;;;16.40;99.90;;;;;;5018617;28;20048;-81
2022/07/04 03:33:50;;;;;;;2.80;1.13;;;16.30;99.90;;;;;;5030532;28;20037;-80
2022/07/04 03:36:20;;;;;;;2.25;1.00;;;16.20;99.90;;;;;;5030275;28;20486;-80
2022/07/04 03:38:46;;;;;;;4.20;1.17;;;16.10;99.90;;;;;;5030973;28;20395;-80
2022/07/04 03:41:13;;;;;;;4.70;1.25;;;16.10;99.90;;;;;;5031471;28;20096;-82
2022/07/04 03:43:39;;;;;;;3.78;1.23;;;16.10;99.90;;;;;;5029211;28;20368;-81
2022/07/04 03:46:06;;;;;;;1.65;0.73;;;16.00;99.90;;;;;;5031059;28;20490;-82
2022/07/04 03:48:32;;;;;;;3.42;0.98;;;16.00;99.90;;;;;;5021986;28;20074;-78
2022/07/04 03:50:58;;;;;;;2.15;0.88;;;16.00;99.90;;;;;;5028005;28;20041;-84
2022/07/04 03:53:24;;;;;;;1.70;1.15;;;15.90;99.90;;;;;;5030799;28;20490;-82
2022/07/04 03:55:51;;;;;;;3.45;1.17;;;15.80;99.90;;;;;;5030816;28;20498;-82
2022/07/04 03:58:17;;;;;;;2.58;1.25;;;15.90;99.90;;;;;;5031038;28;20048;-81
2022/07/04 04:00:43;;;;;;;2.70;1.23;;;15.90;99.90;;;;;;5030435;28;20053;-78
2022/07/04 04:05:55;;;;;;;2.15;1.00;;;16.00;99.90;;;;;;5029986;28;20041;-78
2022/07/04 04:08:22;;;;;;;5.50;1.20;;;16.00;99.90;;;;;;5033803;28;20029;-77
2022/07/04 04:10:50;;;;;;;4.30;1.30;;;16.00;99.90;;;;;;5031863;28;20045;-77
2022/07/04 04:13:17;;;;;;;4.38;2.25;;;16.00;99.90;;;;;;5033754;28;20026;-77
2022/07/04 04:15:43;;;;;;;3.05;1.10;;;16.10;99.90;;;;;;5033660;28;20053;-77
2022/07/04 04:18:09;;;;;;;3.58;0.90;;;16.10;99.90;;;;;;5034309;28;20021;-77
2022/07/04 04:20:35;;;;;;;1.88;0.80;;;16.00;99.90;;;;;;5035688;28;20033;-77
2022/07/04 04:23:01;;;;;;;3.67;0.90;;;16.10;99.90;;;;;;5034953;28;20455;-77
2022/07/04 04:25:28;;;;;;;2.50;1.20;;;16.40;99.90;;;;;;5035843;28;20033;-77
2022/07/04 04:27:54;;;;;;;4.45;1.60;;;17.50;99.90;;;;;;5034127;28;20041;-78
2022/07/04 04:30:20;;;;;;;4.53;1.25;;;18.60;97.70;;;;;;5033682;28;20026;-79
2022/07/04 04:32:46;;;;;;;2.85;0.77;;;19.60;95.40;;;;;;5033427;28;20485;-78
2022/07/04 04:35:12;;;;;;;1.65;0.70;;;20.60;92.20;;;;;;5033956;28;20040;-79
2022/07/04 04:37:38;;;;;;;4.30;0.82;;;21.50;87.80;;;;;;5032845;28;20034;-78
2022/07/04 04:40:06;;;;;;;3.75;0.85;;;21.70;82.60;;;;;;5028714;28;20033;-78
2022/07/04 04:42:32;;;;;;;4.40;1.27;;;21.90;81.80;;;;;;5033355;28;20041;-78
2022/07/04 04:44:58;;;;;;;3.83;0.90;;;21.70;81.50;;;;;;5032773;28;20048;-79
2022/07/04 04:47:24;;;;;;;1.75;0.75;;;22.00;79.50;;;;;;5033700;28;20029;-80
2022/07/04 04:49:51;;;;;;;1.52;0.80;;;22.40;78.30;;;;;;5033429;28;20037;-78
2022/07/04 04:52:17;;;;;;;3.63;0.80;;;22.90;75.60;;;;;;5033948;28;20026;-79
2022/07/04 04:54:43;;;;;;;1.70;0.60;;;23.10;74.60;;;;;;5034027;28;20374;-78
2022/07/04 04:57:09;;;;;;;0.98;0.65;;;23.10;73.90;;;;;;5032972;28;20033;-79
2022/07/04 04:59:36;;;;;;;3.53;0.82;;;23.50;71.40;;;;;;5032890;28;20391;-79
2022/07/04 05:02:02;;;;;;;3.22;0.90;;;23.10;73.10;;;;;;5031887;28;20037;-79
2022/07/04 05:04:28;;;;;;;1.40;0.70;;;23.10;72.40;;;;;;5032730;28;20037;-79
2022/07/04 05:06:55;;;;;;;3.08;0.88;;;22.90;72.60;;;;;;5033083;28;20029;-77
2022/07/04 05:09:21;;;;;;;1.90;0.75;;;23.10;72.60;;;;;;5032431;28;20042;-78
2022/07/04 05:11:48;;;;;;;3.63;0.70;;;23.20;71.40;;;;;;5032504;28;20054;-78
2022/07/04 05:14:15;;;;;;;1.65;1.02;;;23.50;70.20;;;;;;5032919;28;20037;-78
2022/07/04 05:16:41;;;;;;;3.35;0.90;;;22.50;73.30;;;;;;5031230;28;20040;-78
2022/07/04 05:19:07;;;;;;;4.70;1.02;;;22.50;73.70;;;;;;5032859;28;20056;-78
2022/07/04 05:21:34;;;;;;;3.58;0.50;;;23.00;71.50;;;;;;5033401;28;20033;-77
2022/07/04 05:24:00;;;;;;;1.27;0.70;;;22.70;72.80;;;;;;5034145;28;20044;-78
2022/07/04 05:26:26;;;;;;;1.52;0.88;;;22.80;72.30;;;;;;5032643;28;20530;-79
2022/07/04 05:28:52;;;;;;;3.72;1.17;;;22.70;72.50;;;;;;5033416;28;20030;-78
2022/07/04 05:31:18;;;;;;;3.92;1.13;;;23.10;71.90;;;;;;5033041;28;20391;-76
2022/07/04 05:33:45;;;;;;;2.38;0.60;;;22.30;73.20;;;;;;5033058;28;20356;-78
2022/07/04 05:36:11;;;;;;;4.80;0.75;;;22.10;74.00;;;;;;5043854;28;20048;-77
2022/07/04 05:38:37;;;;;;;2.53;0.70;;;22.00;75.10;;;;;;5029941;28;20041;-77
2022/07/04 05:41:03;;;;;;;2.05;0.80;;;22.60;72.80;;;;;;5033460;28;20048;-77
2022/07/04 05:43:29;;;;;;;2.08;1.25;;;22.30;73.60;;;;;;5031188;28;20034;-77
2022/07/04 05:45:56;;;;;;;4.32;1.00;;;22.60;73.60;;;;;;5018595;28;20037;-76
2022/07/04 05:48:22;;;;;;;3.72;0.88;;;22.80;72.00;;;;;;5048582;28;20046;-77
2022/07/04 05:50:48;;;;;;;6.18;0.80;;;23.10;72.20;;;;;;5039570;28;20391;-76
2022/07/04 05:53:14;;;;;;;2.03;0.77;;;22.90;71.00;;;;;;5041642;28;20456;-77
2022/07/04 05:55:40;;;;;;;1.75;0.85;;;22.50;73.20;;;;;;5031327;28;20029;-78
2022/07/04 05:58:06;;;;;;;2.13;0.80;;;22.70;73.30;;;;;;5032891;28;20037;-75
2022/07/04 06:00:33;;;;;;;3.08;0.68;;;22.90;72.10;;;;;;5018852;28;20045;-77
2022/07/04 06:02:59;;;;;;;2.72;1.17;;;22.90;72.70;;;;;;5030373;28;20033;-77
2022/07/04 06:05:25;;;;;;;4.75;0.85;;;22.70;72.10;;;;;;5031252;28;20045;-78
2022/07/04 06:07:51;;;;;;;1.52;0.70;;;22.60;74.30;;;;;;5031627;28;20032;-76
2022/07/04 06:10:17;;;;;;;1.58;0.75;;;22.30;75.30;;;;;;5032273;28;20034;-79
2022/07/04 06:12:43;;;;;;;4.05;0.80;;;22.40;74.10;;;;;;5031605;28;20055;-78
2022/07/04 06:15:10;;;;;;;1.83;1.00;;;22.20;74.10;;;;;;5015613;28;20052;-77
2022/07/04 06:17:37;;;;;;;2.10;0.82;;;22.50;74.70;;;;;;5030574;28;20030;-77
2022/07/04 06:20:03;;;;;;;3.72;1.05;;;23.10;72.50;;;;;;5030011;28;20045;-75
2022/07/04 06:22:43;;;;;;;1.55;0.73;;;23.10;70.50;;;;;;5035360;28;20025;-74
2022/07/04 06:25:14;;;;;;;3.25;1.15;;;22.60;72.60;;;;;;5031671;28;20378;-74
2022/07/04 06:27:42;;;;;;;1.92;0.82;;;23.00;71.10;;;;;;5030485;28;20029;-75
2022/07/04 06:30:09;;;;;;;2.55;0.90;;;22.70;71.50;;;;;;5015518;28;20037;-75
2022/07/04 06:32:49;;;;;;;3.08;1.10;;;21.70;74.40;;;;;;5030244;28;20037;-79
2022/07/04 06:38:18;;;;;;;2.17;0.80;;;22.30;73.30;;;;;;5015639;28;20486;-74
2022/07/04 06:40:45;;;;;;;2.28;1.35;;;22.40;72.50;;;;;;5026653;28;20034;-75
2022/07/04 06:43:12;;;;;;;5.43;1.83;;;22.50;72.10;;;;;;5032713;28;20040;-74
2022/07/04 06:45:38;;;;;;;4.70;0.90;;;22.30;72.60;;;;;;5031008;28;20045;-74
2022/07/04 06:48:06;;;;;;;2.60;0.85;;;22.60;71.50;;;;;;5030953;28;20038;-74
2022/07/04 06:50:33;;;;;;;3.45;0.90;;;23.40;70.10;;;;;;5030596;28;20045;-73
2022/07/04 06:53:03;;;;;;;4.40;0.93;;;22.90;70.00;;;;;;5030716;28;20033;-74
2022/07/04 06:55:38;;;;;;;3.08;0.70;;;22.50;72.40;;;;;;5030261;28;20033;-74
2022/07/04 06:58:06;;;;;;;4.55;0.90;;;22.10;72.80;;;;;;5030413;28;20034;-74
2022/07/04 07:00:34;;;;;;;3.95;0.80;;;22.90;70.60;;;;;;5031425;28;20032;-79
2022/07/04 07:03:02;;;;;;;2.38;0.52;;;23.20;69.90;;;;;;5030616;28;20037;-74
2022/07/04 07:05:29;;;;;;;1.67;0.70;;;23.90;68.30;;;;;;5031104;28;20501;-76
2022/07/04 07:07:56;;;;;;;3.67;0.80;;;24.60;66.40;;;;;;5029472;28;20032;-74
2022/07/04 07:10:22;;;;;;;2.08;0.85;;;22.90;69.00;;;;;;5031095;28;20041;-73
2022/07/04 07:12:48;;;;;;;3.83;0.85;;;23.10;68.70;;;;;;5030955;28;20033;-74
2022/07/04 07:15:16;;;;;;;1.23;0.90;;;23.50;68.30;;;;;;5031551;28;20045;-75
2022/07/04 07:17:42;;;;;;;2.35;0.68;;;24.60;65.20;;;;;;5029622;28;20041;-76
2022/07/04 07:20:09;;;;;;;1.92;0.80;;;25.00;65.10;;;;;;5031000;28;20034;-76
2022/07/04 07:22:36;;;;;;;3.40;1.00;;;24.60;64.60;;;;;;5031009;28;20045;-75
2022/07/04 07:25:03;;;;;;;2.10;0.70;;;24.40;64.90;;;;;;5029094;28;20386;-76
2022/07/04 07:27:29;;;;;;;2.90;0.85;;;23.90;65.20;;;;;;5028287;28;20049;-74
2022/07/04 07:29:55;;;;;;;3.90;1.10;;;23.90;62.40;;;;;;5029549;28;20032;-74
2022/07/04 07:32:21;;;;;;;1.77;0.70;;;23.90;63.80;;;;;;5030581;28;20029;-75
2022/07/04 07:34:48;;;;;;;2.17;1.20;;;24.30;62.80;;;;;;5030527;28;20030;-76
2022/07/04 07:37:14;;;;;;;1.05;0.60;;;24.20;63.70;;;;;;5033390;28;20501;-75
2022/07/04 07:39:40;;;;;;;1.80;0.60;;;23.90;63.80;;;;;;5031391;28;20040;-75
2022/07/04 07:42:06;;;;;;;1.60;0.88;;;24.10;63.10;;;;;;5033015;28;20036;-75
2022/07/04 07:44:33;;;;;;;3.60;0.80;;;24.40;61.80;;;;;;5034268;28;20028;-76
2022/07/04 07:46:59;;;;;;;1.80;0.60;;;24.30;61.90;;;;;;5033849;28;20036;-75
2022/07/04 07:49:25;;;;;;;1.85;0.57;;;25.30;59.30;;;;;;5033508;28;20044;-74
2022/07/04 07:51:51;;;;;;;1.20;0.50;;;25.50;58.40;;;;;;5033857;28;20485;-75
2022/07/04 07:54:18;;;;;;;3.95;0.73;;;24.60;59.30;;;;;;5034307;28;20038;-74
2022/07/04 07:56:44;;;;;;;0.90;0.32;;;23.90;60.80;;;;;;5033195;28;20038;-74
2022/07/04 07:59:10;;;;;;;2.15;0.60;;;24.10;61.40;;;;;;5065204;28;20055;-74
2022/07/04 08:01:36;;;;;;;1.52;0.80;;;24.20;60.00;;;;;;5053012;28;20032;-77
2022/07/04 08:06:48;;;;;;;5.03;1.00;;;25.60;59.30;;;;;;5056842;28;20032;-76
2022/07/04 08:09:14;;;;;;;1.90;0.60;;;26.00;56.90;;;;;;5049162;28;20033;-76
2022/07/04 08:11:42;;;;;;;1.58;0.65;;;25.40;57.10;;;;;;5039905;28;20025;-75
2022/07/04 08:14:08;;;;;;;6.03;1.08;;;25.60;57.40;;;;;;5036185;28;20033;-74
2022/07/04 08:16:35;;;;;;;1.08;0.80;;;25.20;57.00;;;;;;5034678;28;20399;-75
2022/07/04 08:19:02;;;;;;;3.95;0.60;;;24.20;58.10;;;;;;5033231;28;20045;-80
2022/07/04 08:21:29;;;;;;;2.80;0.80;;;24.10;59.30;;;;;;5034915;28;20037;-77
2022/07/04 08:23:55;;;;;;;2.78;0.68;;;24.00;58.80;;;;;;5032597;28;20051;-78
2022/07/04 08:26:22;;;;;;;2.83;0.68;;;24.20;59.30;;;;;;5034201;28;20029;-74
2022/07/04 08:28:48;;;;;;;4.45;1.08;;;24.80;58.70;;;;;;5034307;28;20052;-74
2022/07/04 08:31:14;;;;;;;1.25;0.50;;;25.50;58.10;;;;;;5033218;28;20025;-75
2022/07/04 08:33:40;;;;;;;1.33;0.75;;;25.10;58.10;;;;;;5033132;28;20033;-75
2022/07/04 08:36:06;;;;;;;1.88;0.60;;;25.10;57.40;;;;;;5033951;28;20378;-73
2022/07/04 08:38:32;;;;;;;1.73;0.70;;;25.00;57.60;;;;;;5004943;28;20038;-74
2022/07/04 08:41:02;;;;;;;1.75;0.52;;;25.00;57.10;;;;;;5028948;28;20486;-75
2022/07/04 08:43:33;;;;;;;2.35;0.70;;;25.30;58.90;;;;;;5027883;28;20034;-76
2022/07/04 08:46:03;;;;;;;3.85;0.80;;;24.60;57.90;;;;;;5032185;28;20025;-78
2022/07/04 08:48:30;;;;;;;3.53;0.63;;;24.70;58.80;;;;;;5032919;28;20044;-77
2022/07/04 08:51:09;;;;;;;2.80;1.13;;;24.10;58.30;;;;;;5032818;28;20380;-77
2022/07/04 08:53:38;;;;;;;2.17;0.93;;;24.00;59.20;;;;;;5048179;28;20034;-76
2022/07/04 08:58:52;;;;;;;3.47;0.80;;;25.90;54.80;;;;;;5032008;28;20046;-78
2022/07/04 09:01:19;;;;;;;1.85;0.70;;;24.80;57.10;;;;;;5032441;28;20045;-76
2022/07/04 09:03:46;;;;;;;3.05;0.70;;;24.60;58.10;;;;;;5033482;28;20037;-78
2022/07/04 09:06:12;;;;;;;3.38;1.50;;;24.90;57.70;;;;;;5033338;28;20462;-78
2022/07/04 09:08:40;;;;;;;1.15;0.60;;;24.70;58.10;;;;;;5033046;28;20364;-79
2022/07/04 09:11:07;;;;;;;2.25;0.82;;;25.40;56.80;;;;;;5033038;28;20037;-76
2022/07/04 09:13:34;;;;;;;3.95;0.65;;;24.90;56.70;;;;;;5033610;28;20455;-79
2022/07/04 09:16:01;;;;;;;2.35;0.50;;;24.90;57.30;;;;;;5031733;28;20057;-79
2022/07/04 09:18:36;;;;;;;2.17;0.50;;;25.40;58.10;;;;;;5033513;28;20383;-82
2022/07/04 09:21:07;;;;;;;1.42;0.80;;;26.00;57.90;;;;;;5030958;28;20398;-78
2022/07/04 09:23:35;;;;;;;1.83;0.75;;;26.40;55.20;;;;;;5032988;28;20048;-76
2022/07/04 09:26:10;;;;;;;3.03;1.13;;;25.30;56.90;;;;;;5029058;28;20049;-79
2022/07/04 09:28:38;;;;;;;1.95;0.82;;;25.00;58.60;;;;;;5031375;28;20035;-78
2022/07/04 09:31:15;;;;;;;3.03;0.60;;;25.40;57.80;;;;;;5032373;28;20045;-78
2022/07/04 09:33:52;;;;;;;2.25;1.02;;;25.90;55.20;;;;;;5032126;28;20148;-77
2022/07/04 09:36:43;;;;;;;1.15;0.60;;;25.30;56.20;;;;;;5032516;28;20040;-76
2022/07/04 09:39:14;;;;;;;2.00;0.50;;;25.60;56.40;;;;;;5032059;28;20037;-76
2022/07/04 09:41:58;;;;;;;4.00;1.02;;;25.00;56.50;;;;;;5031319;28;20033;-78
2022/07/04 09:44:27;;;;;;;1.83;0.60;;;25.60;55.70;;;;;;5032836;28;20038;-77
2022/07/04 09:46:53;;;;;;;1.88;0.40;;;25.70;56.80;;;;;;5031813;28;20033;-78
2022/07/04 09:49:20;;;;;;;3.25;0.85;;;25.20;56.80;;;;;;5032454;28;20038;-76
2022/07/04 09:51:48;;;;;;;3.05;0.68;;;24.80;56.60;;;;;;5032163;28;20041;-76
2022/07/04 09:54:22;;;;;;;1.30;0.50;;;24.90;56.10;;;;;;5032452;28;20033;-80
2022/07/04 09:56:51;;;;;;;2.80;0.70;;;25.60;56.70;;;;;;5031712;28;20040;-78
2022/07/04 09:59:18;;;;;;;1.63;0.60;;;26.10;55.00;;;;;;5013966;28;20068;-76
2022/07/04 10:01:44;;;;;;;1.88;0.55;;;26.00;55.10;;;;;;5031544;28;20059;-78
2022/07/04 10:04:12;;;;;;;2.15;0.73;;;25.30;55.50;;;;;;5025026;28;20045;-79
2022/07/04 10:06:41;;;;;;;3.85;0.90;;;25.10;55.40;;;;;;5031981;28;20036;-78
2022/07/04 10:09:09;;;;;;;1.35;0.90;;;24.90;54.80;;;;;;5045654;28;20037;-79
2022/07/04 10:11:38;;;;;;;1.27;0.60;;;25.20;55.80;;;;;;5031950;28;20036;-77
2022/07/04 10:14:07;;;;;;;2.67;0.68;;;25.70;54.50;;;;;;5031640;28;20025;-80
2022/07/04 10:16:33;;;;;;;2.75;0.77;;;25.50;56.80;;;;;;5031783;28;20045;-79
2022/07/04 10:19:00;;;;;;;1.42;0.50;;;26.40;56.50;;;;;;5031449;28;20163;-79
2022/07/04 10:21:27;;;;;;;1.83;0.63;;;27.30;53.80;;;;;;5030389;28;20042;-79
2022/07/04 10:23:53;;;;;;;2.63;0.70;;;27.10;52.30;;;;;;5038704;28;20048;-78
2022/07/04 10:26:20;;;;;;;1.20;0.60;;;26.60;54.00;;;;;;5031766;28;20036;-79
2022/07/04 10:28:47;;;;;;;2.15;0.55;;;26.70;53.80;;;;;;5031152;28;20033;-78
2022/07/04 10:31:14;;;;;;;6.07;0.70;;;25.90;52.20;;;;;;5031498;28;20033;-78
2022/07/04 10:33:41;;;;;;;1.17;0.40;;;25.60;52.60;;;;;;5032017;28;20056;-78
2022/07/04 10:36:19;;;;;;;1.40;0.50;;;25.80;52.20;;;;;;5031032;28;20033;-78
2022/07/04 10:38:59;;;;;;;1.33;0.55;;;25.80;51.60;;;;;;5031159;28;20033;-77
2022/07/04 10:41:26;;;;;;;1.55;0.50;;;25.70;52.80;;;;;;5030507;28;20040;-78
2022/07/04 10:44:15;;;;;;;1.30;0.50;;;25.70;51.00;;;;;;5031289;28;20033;-76
2022/07/04 10:46:49;;;;;;;1.33;0.93;;;24.80;52.40;;;;;;5031090;28;20037;-78
2022/07/04 10:49:15;;;;;;;1.73;0.77;;;24.90;52.10;;;;;;5030427;28;20033;-79
2022/07/04 10:51:46;;;;;;;1.60;0.50;;;25.60;52.50;;;;;;5031188;28;20034;-78
2022/07/04 10:54:18;;;;;;;1.25;0.68;;;26.20;51.20;;;;;;5031470;28;20030;-79
2022/07/04 10:56:56;;;;;;;2.35;0.50;;;26.30;52.60;;;;;;5031308;28;20033;-79
2022/07/04 10:59:27;;;;;;;1.33;0.60;;;26.30;51.70;;;;;;5031397;28;20030;-78
2022/07/04 11:02:16;;;;;;;3.67;0.60;;;25.70;52.00;;;;;;5030811;28;20497;-78
2022/07/04 11:05:04;;;;;;;2.45;0.80;;;26.00;53.40;;;;;;5030497;28;20038;-78
2022/07/04 11:07:30;;;;;;;2.67;0.70;;;26.10;51.70;;;;;;5011898;28;20061;-80
2022/07/04 11:12:56;;;;;;;2.75;0.80;;;26.00;49.40;;;;;;5035293;28;20033;-78
2022/07/04 11:15:28;;;;;;;1.75;0.77;;;25.50;50.30;;;;;;5034230;28;20537;-76
2022/07/04 11:17:54;;;;;;;4.45;0.52;;;25.30;50.50;;;;;;5030357;28;20037;-78
2022/07/04 11:20:22;;;;;;;1.88;0.50;;;25.30;49.20;;;;;;5034958;28;20033;-79
2022/07/04 11:22:48;;;;;;;2.13;0.50;;;25.50;52.50;;;;;;5034949;28;20048;-75
2022/07/04 11:25:15;;;;;;;2.42;0.50;;;25.80;50.60;;;;;;5034893;28;20025;-77
2022/07/04 11:27:42;;;;;;;0.70;0.50;;;25.80;51.20;;;;;;5033978;28;20045;-78
2022/07/04 11:30:10;;;;;;;5.47;0.80;;;26.10;50.20;;;;;;5031552;28;20033;-77
2022/07/04 11:32:38;;;;;;;2.55;0.60;;;26.30;50.50;;;;;;5034705;28;20028;-76
2022/07/04 11:35:06;;;;;;;4.53;0.70;;;26.30;49.50;;;;;;5034317;28;20033;-77
2022/07/04 11:37:33;;;;;;;1.55;0.50;;;26.20;49.30;;;;;;5034382;28;20034;-76
2022/07/04 11:45:53;;;;;;;2.05;0.52;;;25.40;49.80;;;;;;5034152;28;20040;-76
2022/07/04 11:48:26;;;;;;;2.53;0.50;;;25.50;50.30;;;;;;5034665;28;20040;-75
2022/07/04 11:50:53;;;;;;;2.13;0.80;;;25.60;50.50;;;;;;5033596;28;20044;-75
2022/07/04 11:53:20;;;;;;;2.05;0.50;;;25.90;50.10;;;;;;5034755;28;20459;-76
2022/07/04 11:55:57;;;;;;;1.63;0.60;;;26.00;49.80;;;;;;5034009;28;20367;-75
2022/07/04 11:58:24;;;;;;;2.05;0.50;;;26.10;50.80;;;;;;5035026;28;20040;-76
2022/07/04 12:00:50;;;;;;;1.58;0.60;;;26.10;50.80;;;;;;5033217;28;20041;-78
2022/07/04 12:03:16;;;;;;;3.55;0.50;;;26.20;51.50;;;;;;5033320;28;20040;-77
2022/07/04 12:05:43;;;;;;;1.85;0.60;;;26.20;49.70;;;;;;5034735;28;20033;-76
2022/07/04 12:08:09;;;;;;;2.60;0.55;;;26.30;51.00;;;;;;5034121;28;20029;-76
2022/07/04 12:10:37;;;;;;;3.05;0.60;;;26.40;50.70;;;;;;5034084;28;20033;-74
2022/07/04 12:13:07;;;;;;;2.40;0.50;;;26.40;49.00;;;;;;5033880;28;20076;-76
2022/07/04 12:15:41;;;;;;;2.90;0.55;;;25.50;49.90;;;;;;5034299;28;20398;-75
2022/07/04 12:18:31;;;;;;;2.20;0.57;;;25.50;50.40;;;;;;5034241;28;20029;-74
2022/07/04 12:21:12;;;;;;;2.75;0.50;;;25.70;49.60;;;;;;5031944;28;20044;-74
2022/07/04 12:23:39;;;;;;;3.70;0.70;;;25.90;50.10;;;;;;5034395;28;20502;-75
2022/07/04 12:26:06;;;;;;;2.35;0.40;;;26.10;49.50;;;;;;5033506;28;20030;-77
2022/07/04 12:28:39;;;;;;;2.53;0.90;;;26.10;49.20;;;;;;5033899;28;20051;-76
2022/07/04 12:31:05;;;;;;;1.35;0.50;;;25.70;50.70;;;;;;5033607;28;20042;-78
2022/07/04 12:33:31;;;;;;;1.02;0.52;;;26.20;50.40;;;;;;5033860;28;20046;-79
2022/07/04 12:35:59;;;;;;;1.83;0.60;;;26.20;49.90;;;;;;5033302;28;20033;-79
2022/07/04 12:38:28;;;;;;;0.88;0.55;;;26.20;51.30;;;;;;5033325;28;20025;-77
2022/07/04 12:41:02;;;;;;;2.40;0.43;;;26.60;49.80;;;;;;5031861;28;20045;-76
2022/07/04 12:43:40;;;;;;;3.20;0.57;;;26.30;49.10;;;;;;5033186;28;20038;-76
2022/07/04 12:46:30;;;;;;;5.15;0.95;;;26.50;49.90;;;;;;5033395;28;20033;-77
2022/07/04 12:48:57;;;;;;;;;;;26.60;49.50;;;;;;5033976;28;20467;-76
2022/07/04 12:51:24;;;;;;;2.88;0.57;;;26.20;49.30;;;;;;5033341;28;20321;-77
2022/07/04 12:53:53;;;;;;;3.25;0.70;;;26.30;49.10;;;;;;5032215;28;20033;-77
2022/07/04 12:56:33;;;;;;;3.70;0.60;;;26.60;48.80;;;;;;5033493;28;20045;-75
2022/07/04 12:59:05;;;;;;;4.85;0.63;;;26.00;48.50;;;;;;5032376;28;20034;-77
2022/07/04 13:01:32;;;;;;;2.80;0.60;;;26.30;49.50;;;;;;5033255;28;20041;-76
2022/07/04 13:03:59;;;;;;;1.55;0.50;;;26.50;48.60;;;;;;5031565;28;20033;-77
2022/07/04 13:06:26;;;;;;;1.90;0.52;;;26.40;48.80;;;;;;5034318;28;20026;-75
2022/07/04 13:08:53;;;;;;;1.00;0.35;;;26.30;48.40;;;;;;5032155;28;20490;-77
2022/07/04 13:14:05;;;;;;;2.30;0.40;;;26.50;49.00;;;;;;5032917;28;20198;-77
2022/07/04 13:16:31;;;;;;;1.30;0.38;;;26.80;48.90;;;;;;5031187;28;20053;-78
2022/07/04 13:18:58;;;;;;;1.88;0.50;;;26.90;47.90;;;;;;5032905;28;20033;-79